Time;durP1;ratioP1;P1;durP2;ratioP2;P2;SDS_P1;SDS_P2;PMS_P1;PMS_P2;Temp;Humidity;BMP_temperature;BMP_pressure;BME280_temperature;BME280_humidity;BME280_pressure;Samples;Min_cycle;Max_cycle;Signal;HPM_P1;HPM_P2
2023/07/14 00:00:23;;;;;;;16.65;14.20;;;;;;;;;;5072525;28;20027;-66
2023/07/14 00:02:50;;;;;;;15.48;13.93;;;;;;;;;;5073100;28;20039;-66
2023/07/14 00:05:17;;;;;;;22.50;16.27;;;;;;;;;;5073928;28;20509;-66
2023/07/14 00:07:43;;;;;;;21.08;15.65;;;;;;;;;;5070966;28;20563;-66
2023/07/14 00:10:16;;;;;;;26.85;17.42;;;;;;;;;;5074307;28;20032;-66
2023/07/14 00:12:41;;;;;;;17.67;14.55;;;;;;;;;;5072929;28;20068;-66
2023/07/14 00:15:06;;;;;;;19.70;17.17;;;;;;;;;;5073632;28;20044;-66
2023/07/14 00:17:31;;;;;;;24.67;18.55;;;;;;;;;;5072873;28;20697;-65
2023/07/14 00:19:59;;;;;;;21.07;14.90;;;;;;;;;;5073828;28;20017;-65
2023/07/14 00:22:24;;;;;;;19.02;16.25;;;;;;;;;;5072239;28;20075;-65
2023/07/14 00:24:49;;;;;;;21.92;15.32;;;;;;;;;;5074079;28;20036;-64
2023/07/14 00:27:18;;;;;;;23.37;16.23;;;;;;;;;;5072341;28;20033;-65
2023/07/14 00:29:45;;;;;;;20.25;15.73;;;;;;;;;;5073519;28;20426;-64
2023/07/14 00:32:12;;;;;;;20.02;16.95;;;;;;;;;;5072168;28;20024;-66
2023/07/14 00:34:37;;;;;;;20.95;17.55;;;;;;;;;;5073969;28;20027;-64
2023/07/14 00:37:03;;;;;;;20.70;18.42;;;;;;;;;;5071279;28;20127;-65
2023/07/14 00:39:28;;;;;;;18.95;16.95;;;;;;;;;;5073880;28;20103;-64
2023/07/14 00:41:53;;;;;;;21.97;16.37;;;;;;;;;;5071634;28;20090;-66
2023/07/14 00:44:18;;;;;;;23.15;18.40;;;;;;;;;;5073214;28;20454;-64
2023/07/14 00:46:45;;;;;;;19.77;17.50;;;;;;;;;;5072132;28;20044;-64
2023/07/14 00:49:13;;;;;;;21.73;16.13;;;;;;;;;;5073563;28;20445;-64
2023/07/14 00:51:39;;;;;;;20.45;17.38;;;;;;;;;;5070501;28;20400;-64
2023/07/14 00:54:04;;;;;;;21.80;17.65;;;;;;;;;;5072923;28;20024;-65
2023/07/14 00:56:39;;;;;;;24.83;14.87;;;;;;;;;;5070724;28;20033;-64
2023/07/14 00:59:10;;;;;;;20.70;15.55;;;;;;;;;;5070868;28;20462;-65
2023/07/14 01:01:36;;;;;;;20.30;16.58;;;;;;;;;;5072055;28;20406;-65
2023/07/14 01:04:02;;;;;;;17.08;15.25;;;;;;;;;;5072699;28;20008;-66
2023/07/14 01:06:29;;;;;;;22.75;16.60;;;;;;;;;;5071494;28;20036;-65
2023/07/14 01:08:59;;;;;;;16.75;14.48;;;;;;;;;;5073228;28;20380;-66
2023/07/14 01:11:27;;;;;;;20.80;15.60;;;;;;;;;;5071759;28;20060;-65
2023/07/14 01:13:53;;;;;;;16.63;14.82;;;;;;;;;;5071144;28;20066;-65
2023/07/14 01:16:19;;;;;;;16.63;14.07;;;;;;;;;;5071503;28;20383;-64
2023/07/14 01:18:45;;;;;;;15.43;13.05;;;;;;;;;;5073298;28;20020;-64
2023/07/14 01:21:11;;;;;;;19.20;15.25;;;;;;;;;;5070954;28;20016;-64
2023/07/14 01:23:54;;;;;;;21.55;13.80;;;;;;;;;;5073275;28;20012;-65
2023/07/14 01:26:31;;;;;;;18.50;14.20;;;;;;;;;;5071232;28;20044;-64
2023/07/14 01:28:56;;;;;;;15.63;12.82;;;;;;;;;;5072400;28;20024;-66
2023/07/14 01:31:23;;;;;;;18.95;12.75;;;;;;;;;;5071272;28;20039;-66
2023/07/14 01:33:52;;;;;;;13.88;12.02;;;;;;;;;;5071093;28;20541;-66
2023/07/14 01:36:17;;;;;;;14.75;13.15;;;;;;;;;;5070652;28;20120;-66
2023/07/14 01:38:43;;;;;;;19.05;12.38;;;;;;;;;;5072793;28;20074;-66
2023/07/14 01:41:09;;;;;;;13.63;11.60;;;;;;;;;;5071096;28;20024;-65
2023/07/14 01:43:36;;;;;;;18.27;13.95;;;;;;;;;;5072218;28;20013;-66
2023/07/14 01:46:02;;;;;;;14.38;12.48;;;;;;;;;;5072173;28;20024;-66
2023/07/14 01:48:33;;;;;;;17.25;11.23;;;;;;;;;;5071160;28;20028;-66
2023/07/14 01:51:01;;;;;;;14.32;11.57;;;;;;;;;;5072218;28;20027;-66
2023/07/14 01:53:28;;;;;;;15.65;11.77;;;;;;;;;;5070822;28;20439;-67
2023/07/14 01:55:56;;;;;;;16.42;11.93;;;;;;;;;;5072380;28;20378;-67
2023/07/14 01:58:23;;;;;;;16.03;11.00;;;;;;;;;;5070612;28;20515;-67
2023/07/14 02:00:49;;;;;;;26.67;13.63;;;;;;;;;;5071717;28;20036;-67
2023/07/14 02:03:18;;;;;;;16.58;10.63;;;;;;;;;;5070436;28;20578;-68
2023/07/14 02:05:44;;;;;;;21.90;13.52;;;;;;;;;;5071755;28;20479;-68
2023/07/14 02:08:12;;;;;;;12.73;11.52;;;;;;;;;;5070357;28;20033;-68
2023/07/14 02:10:38;;;;;;;;;;;;;;;;;;5071857;28;20024;-68
2023/07/14 02:13:05;;;;;;;16.33;11.70;;;;;;;;;;5070030;28;20436;-68
2023/07/14 02:15:32;;;;;;;14.40;12.02;;;;;;;;;;5071858;28;20028;-68
2023/07/14 02:17:58;;;;;;;12.60;11.25;;;;;;;;;;5070239;28;20033;-68
2023/07/14 02:20:26;;;;;;;18.02;12.55;;;;;;;;;;5071553;28;20031;-68
2023/07/14 02:22:52;;;;;;;13.27;11.87;;;;;;;;;;5070154;28;20108;-68
2023/07/14 02:25:18;;;;;;;14.43;11.55;;;;;;;;;;5071390;28;20468;-69
2023/07/14 02:27:44;;;;;;;12.20;10.95;;;;;;;;;;5069725;28;20044;-68
2023/07/14 02:30:14;;;;;;;13.90;11.27;;;;;;;;;;5071227;28;20016;-68
2023/07/14 02:32:41;;;;;;;11.50;10.30;;;;;;;;;;5070119;28;20036;-68
2023/07/14 02:35:15;;;;;;;17.00;11.50;;;;;;;;;;5071080;28;20391;-69
2023/07/14 02:38:00;;;;;;;12.55;10.93;;;;;;;;;;5070002;28;20042;-68
2023/07/14 02:40:25;;;;;;;18.58;12.10;;;;;;;;;;5071241;28;20594;-69
2023/07/14 02:42:51;;;;;;;17.15;11.50;;;;;;;;;;5068892;28;20119;-68
2023/07/14 02:45:18;;;;;;;12.77;11.35;;;;;;;;;;5071201;28;20016;-68
2023/07/14 02:47:44;;;;;;;17.08;12.23;;;;;;;;;;5069648;28;20029;-68
2023/07/14 02:50:09;;;;;;;17.63;12.90;;;;;;;;;;5070800;28;20012;-68
2023/07/14 02:52:34;;;;;;;14.50;11.60;;;;;;;;;;5069867;28;20380;-66
2023/07/14 02:55:00;;;;;;;18.57;12.47;;;;;;;;;;5070917;28;20070;-65
2023/07/14 02:57:25;;;;;;;15.98;12.15;;;;;;;;;;5069213;28;20071;-65
2023/07/14 02:59:50;;;;;;;15.93;12.73;;;;;;;;;;5071259;28;20062;-64
2023/07/14 03:02:15;;;;;;;22.40;12.90;;;;;;;;;;5069398;28;20052;-63
2023/07/14 03:04:40;;;;;;;23.87;13.43;;;;;;;;;;5070693;28;21039;-65
2023/07/14 03:07:06;;;;;;;18.40;15.10;;;;;;;;;;5069382;28;20097;-66
2023/07/14 03:09:31;;;;;;;19.23;13.20;;;;;;;;;;5071139;28;20020;-66
2023/07/14 03:11:56;;;;;;;16.90;13.40;;;;;;;;;;5068850;28;20028;-65
2023/07/14 03:14:21;;;;;;;16.97;13.40;;;;;;;;;;5071039;28;20024;-65
2023/07/14 03:16:46;;;;;;;13.40;11.93;;;;;;;;;;5069650;28;20443;-65
2023/07/14 03:19:12;;;;;;;14.95;13.32;;;;;;;;;;5070387;28;20025;-65
2023/07/14 03:21:38;;;;;;;21.83;14.63;;;;;;;;;;5068925;28;20052;-66
2023/07/14 03:24:03;;;;;;;21.35;15.25;;;;;;;;;;5070527;28;20052;-66
2023/07/14 03:26:28;;;;;;;20.88;15.95;;;;;;;;;;5069307;28;20111;-66
2023/07/14 03:28:53;;;;;;;18.67;14.23;;;;;;;;;;5070735;28;20035;-67
2023/07/14 03:31:18;;;;;;;26.97;16.00;;;;;;;;;;5069074;28;20047;-66
2023/07/14 03:33:44;;;;;;;24.43;16.47;;;;;;;;;;5070740;28;20419;-67
2023/07/14 03:36:12;;;;;;;19.30;15.38;;;;;;;;;;5068483;28;20863;-66
2023/07/14 03:38:38;;;;;;;21.38;16.48;;;;;;;;;;5071095;28;20017;-65
2023/07/14 03:41:04;;;;;;;24.30;16.67;;;;;;;;;;5068755;28;20052;-65
2023/07/14 03:43:29;;;;;;;26.17;17.03;;;;;;;;;;5070249;28;20036;-66
2023/07/14 03:45:56;;;;;;;25.77;17.40;;;;;;;;;;5070772;28;20340;-64
2023/07/14 03:48:22;;;;;;;19.73;17.58;;;;;;;;;;5068075;28;20439;-64
2023/07/14 03:50:48;;;;;;;25.65;18.85;;;;;;;;;;5070607;28;20033;-65
2023/07/14 03:53:13;;;;;;;20.45;18.08;;;;;;;;;;5056090;28;20526;-65
2023/07/14 03:55:38;;;;;;;21.17;18.23;;;;;;;;;;5050683;28;20428;-65
2023/07/14 03:58:04;;;;;;;25.47;17.80;;;;;;;;;;5048571;28;20444;-64
2023/07/14 04:00:30;;;;;;;25.20;17.65;;;;;;;;;;5050749;28;20555;-64
2023/07/14 04:02:56;;;;;;;30.20;20.00;;;;;;;;;;5048725;28;20116;-64
2023/07/14 04:05:21;;;;;;;21.05;17.98;;;;;;;;;;5050111;28;20096;-65
2023/07/14 04:07:46;;;;;;;19.70;16.30;;;;;;;;;;5049045;28;20561;-66
2023/07/14 04:10:11;;;;;;;32.37;18.83;;;;;;;;;;5068264;28;20028;-66
2023/07/14 04:12:37;;;;;;;26.23;18.65;;;;;;;;;;5062376;28;20472;-61
2023/07/14 04:15:02;;;;;;;25.73;18.10;;;;;;;;;;5054503;28;20029;-64
2023/07/14 04:17:29;;;;;;;20.23;17.70;;;;;;;;;;5048898;28;20051;-64
2023/07/14 04:19:54;;;;;;;20.30;18.20;;;;;;;;;;5049861;28;20475;-65
2023/07/14 04:22:19;;;;;;;21.80;18.77;;;;;;;;;;5048687;28;20036;-65
2023/07/14 04:24:45;;;;;;;22.25;17.33;;;;;;;;;;5051213;28;20447;-64
2023/07/14 04:27:12;;;;;;;20.98;17.13;;;;;;;;;;5051687;28;20036;-65
2023/07/14 04:29:38;;;;;;;27.13;16.77;;;;;;;;;;5050333;28;20052;-65
2023/07/14 04:32:03;;;;;;;17.92;16.10;;;;;;;;;;5057144;28;20056;-64
2023/07/14 04:34:29;;;;;;;20.80;16.60;;;;;;;;;;5072151;28;20420;-64
2023/07/14 04:36:54;;;;;;;23.33;14.95;;;;;;;;;;5072167;28;20499;-64
2023/07/14 04:39:19;;;;;;;18.00;13.73;;;;;;;;;;5073569;28;20464;-64
2023/07/14 04:41:45;;;;;;;16.80;14.23;;;;;;;;;;5071825;28;20089;-64
2023/07/14 04:44:13;;;;;;;17.30;14.40;;;;;;;;;;5070263;28;20020;-64
2023/07/14 04:46:38;;;;;;;15.73;13.95;;;;;;;;;;5047397;28;20488;-63
2023/07/14 04:49:04;;;;;;;16.57;14.83;;;;;;;;;;5072776;28;20028;-63
2023/07/14 04:51:31;;;;;;;17.08;14.10;;;;;;;;;;5062106;28;20642;-63
2023/07/14 04:53:56;;;;;;;24.90;14.35;;;;;;;;;;5053299;28;20032;-63
2023/07/14 04:56:21;;;;;;;15.70;13.70;;;;;;;;;;5051737;28;20085;-63
2023/07/14 04:58:47;;;;;;;15.20;12.57;;;;;;;;;;5053742;28;20491;-63
2023/07/14 05:01:12;;;;;;;15.35;13.27;;;;;;;;;;5051841;28;20471;-63
2023/07/14 05:03:37;;;;;;;14.68;13.32;;;;;;;;;;5083333;28;20376;-64
2023/07/14 05:06:02;;;;;;;14.63;13.13;;;;;;;;;;5051867;28;20033;-62
2023/07/14 05:08:27;;;;;;;14.73;12.93;;;;;;;;;;5053311;28;20510;-63
2023/07/14 05:10:53;;;;;;;16.30;13.93;;;;;;;;;;5052588;28;20032;-64
2023/07/14 05:13:18;;;;;;;18.43;12.73;;;;;;;;;;5051590;28;20075;-63
2023/07/14 05:15:44;;;;;;;13.93;12.23;;;;;;;;;;5053256;28;20469;-63
2023/07/14 05:18:09;;;;;;;17.80;14.65;;;;;;;;;;5051138;28;21005;-63
2023/07/14 05:20:35;;;;;;;15.57;11.97;;;;;;;;;;5052949;28;20107;-63
2023/07/14 05:23:00;;;;;;;16.55;12.57;;;;;;;;;;5051252;28;20513;-63
2023/07/14 05:25:25;;;;;;;18.90;14.02;;;;;;;;;;5052650;28;20021;-63
2023/07/14 05:27:51;;;;;;;24.00;14.07;;;;;;;;;;5051541;28;20086;-63
2023/07/14 05:30:17;;;;;;;15.65;11.55;;;;;;;;;;5052987;28;20431;-63
2023/07/14 05:32:43;;;;;;;16.25;12.20;;;;;;;;;;5051046;28;20044;-63
2023/07/14 05:35:09;;;;;;;17.73;11.23;;;;;;;;;;5052440;28;20045;-63
2023/07/14 05:37:35;;;;;;;17.73;11.93;;;;;;;;;;5051494;28;20415;-64
2023/07/14 05:40:00;;;;;;;19.67;10.48;;;;;;;;;;5052365;28;20027;-63
2023/07/14 05:42:25;;;;;;;12.98;11.13;;;;;;;;;;5049902;28;20033;-62
2023/07/14 05:44:50;;;;;;;14.37;10.40;;;;;;;;;;5052550;28;20032;-62
2023/07/14 05:47:16;;;;;;;17.52;13.70;;;;;;;;;;5067832;28;20032;-62
2023/07/14 05:49:41;;;;;;;16.10;9.93;;;;;;;;;;5072512;28;20016;-62
2023/07/14 05:52:09;;;;;;;18.70;13.47;;;;;;;;;;5057613;28;20456;-62
2023/07/14 05:54:34;;;;;;;15.40;11.02;;;;;;;;;;5032055;28;20067;-60
2023/07/14 05:56:59;;;;;;;17.40;13.57;;;;;;;;;;5039163;28;20037;-60
2023/07/14 05:59:25;;;;;;;14.27;12.00;;;;;;;;;;5052283;28;20407;-60
2023/07/14 06:01:50;;;;;;;13.23;11.10;;;;;;;;;;5050564;28;20517;-59
2023/07/14 06:04:15;;;;;;;16.20;12.43;;;;;;;;;;5070258;28;20478;-60
2023/07/14 06:06:41;;;;;;;13.75;10.68;;;;;;;;;;5070752;28;20042;-60
2023/07/14 06:09:06;;;;;;;17.13;10.85;;;;;;;;;;5072149;28;20371;-60
2023/07/14 06:11:31;;;;;;;18.87;10.07;;;;;;;;;;5070472;28;20120;-63
2023/07/14 06:13:57;;;;;;;15.63;11.10;;;;;;;;;;5072138;28;20024;-60
2023/07/14 06:16:22;;;;;;;10.82;9.45;;;;;;;;;;5070532;28;20041;-60
2023/07/14 06:18:50;;;;;;;12.65;9.55;;;;;;;;;;5071463;28;20407;-60
2023/07/14 06:21:16;;;;;;;19.20;10.80;;;;;;;;;;5070177;28;20028;-59
2023/07/14 06:23:41;;;;;;;11.48;9.90;;;;;;;;;;5071629;28;20103;-59
2023/07/14 06:26:06;;;;;;;17.20;10.43;;;;;;;;;;5069648;28;20017;-59
2023/07/14 06:28:32;;;;;;;12.70;11.35;;;;;;;;;;5071885;28;20023;-59
2023/07/14 06:30:58;;;;;;;12.88;10.45;;;;;;;;;;5071511;28;20486;-59
2023/07/14 06:33:24;;;;;;;17.77;10.48;;;;;;;;;;5069473;28;20054;-60
2023/07/14 06:35:49;;;;;;;14.55;11.43;;;;;;;;;;5071454;28;20407;-59
2023/07/14 06:38:14;;;;;;;15.07;9.40;;;;;;;;;;5069748;28;20033;-59
2023/07/14 06:40:40;;;;;;;12.77;7.57;;;;;;;;;;5071291;28;21100;-60
2023/07/14 06:43:09;;;;;;;14.63;9.27;;;;;;;;;;5069650;28;20565;-61
2023/07/14 06:45:34;;;;;;;9.85;8.20;;;;;;;;;;5058531;28;20074;-62
2023/07/14 06:47:59;;;;;;;18.42;9.77;;;;;;;;;;5067180;28;20040;-61
2023/07/14 06:50:24;;;;;;;11.03;7.20;;;;;;;;;;5067061;28;20460;-61
2023/07/14 06:52:51;;;;;;;9.75;7.70;;;;;;;;;;5049914;28;20124;-60
2023/07/14 06:55:16;;;;;;;10.02;8.48;;;;;;;;;;5050637;28;20442;-61
2023/07/14 06:57:41;;;;;;;11.30;9.07;;;;;;;;;;5049457;28;20033;-61
2023/07/14 07:00:10;;;;;;;15.23;8.27;;;;;;;;;;5050710;28;20443;-61
2023/07/14 07:02:35;;;;;;;13.90;8.07;;;;;;;;;;5053227;28;20029;-61
2023/07/14 07:05:01;;;;;;;9.55;7.50;;;;;;;;;;5070688;28;20017;-61
2023/07/14 07:07:26;;;;;;;11.87;9.10;;;;;;;;;;5069524;28;20081;-61
2023/07/14 07:09:55;;;;;;;14.27;7.90;;;;;;;;;;5069941;28;20506;-61
2023/07/14 07:12:21;;;;;;;13.10;7.28;;;;;;;;;;5068041;28;20031;-61
2023/07/14 07:14:46;;;;;;;21.70;13.38;;;;;;;;;;5054131;28;20021;-61
2023/07/14 07:17:11;;;;;;;12.40;7.43;;;;;;;;;;5048943;28;20214;-61
2023/07/14 07:19:36;;;;;;;11.33;7.50;;;;;;;;;;5050974;28;20438;-61
2023/07/14 07:22:01;;;;;;;7.00;6.30;;;;;;;;;;5048544;28;20407;-61
2023/07/14 07:24:27;;;;;;;9.93;7.78;;;;;;;;;;5050408;28;20016;-61
2023/07/14 07:26:52;;;;;;;10.67;6.00;;;;;;;;;;5049201;28;20041;-62
2023/07/14 07:29:17;;;;;;;8.03;6.73;;;;;;;;;;5050659;28;20415;-60
2023/07/14 07:31:42;;;;;;;5.78;5.18;;;;;;;;;;5049058;28;20456;-61
2023/07/14 07:34:08;;;;;;;16.17;6.80;;;;;;;;;;5050528;28;20041;-61
2023/07/14 07:36:33;;;;;;;8.73;4.85;;;;;;;;;;5052106;28;20506;-61
2023/07/14 07:38:59;;;;;;;9.35;5.97;;;;;;;;;;5068977;28;20803;-61
2023/07/14 07:41:26;;;;;;;10.98;5.25;;;;;;;;;;5069030;28;20094;-61
2023/07/14 07:43:51;;;;;;;8.40;5.28;;;;;;;;;;5068217;28;20013;-61
2023/07/14 07:46:16;;;;;;;9.75;6.30;;;;;;;;;;5058908;28;20497;-61
2023/07/14 07:48:42;;;;;;;12.10;5.85;;;;;;;;;;5050597;28;20195;-61
2023/07/14 07:51:08;;;;;;;15.35;4.88;;;;;;;;;;5048866;28;20021;-60
2023/07/14 07:53:33;;;;;;;10.65;5.30;;;;;;;;;;5049806;28;20009;-64
2023/07/14 07:55:59;;;;;;;11.57;5.53;;;;;;;;;;5050243;28;20024;-61
2023/07/14 07:58:24;;;;;;;8.63;4.30;;;;;;;;;;5049207;28;20450;-61
2023/07/14 08:00:50;;;;;;;7.15;3.92;;;;;;;;;;5050460;28;20056;-61
2023/07/14 08:03:16;;;;;;;6.53;4.28;;;;;;;;;;5048542;28;20033;-61
2023/07/14 08:05:41;;;;;;;9.03;4.67;;;;;;;;;;5050441;28;20464;-61
2023/07/14 08:08:06;;;;;;;4.47;3.63;;;;;;;;;;5048692;28;20040;-61
2023/07/14 08:10:31;;;;;;;7.87;3.97;;;;;;;;;;5053245;28;20017;-61
2023/07/14 08:12:57;;;;;;;10.73;5.33;;;;;;;;;;5052461;28;20454;-61
2023/07/14 08:15:22;;;;;;;10.70;4.67;;;;;;;;;;5054179;28;20017;-61
2023/07/14 08:17:54;;;;;;;10.57;7.63;;;;;;;;;;5052770;28;20072;-61
2023/07/14 08:20:19;;;;;;;6.50;4.00;;;;;;;;;;5054038;28;20017;-61
2023/07/14 08:22:44;;;;;;;14.10;4.53;;;;;;;;;;5052360;28;20455;-61
2023/07/14 08:25:10;;;;;;;5.70;4.53;;;;;;;;;;5053795;28;20017;-61
2023/07/14 08:27:35;;;;;;;3.15;2.85;;;;;;;;;;5052499;28;20460;-61
2023/07/14 08:30:01;;;;;;;8.80;5.10;;;;;;;;;;5053487;28;20084;-61
2023/07/14 08:32:26;;;;;;;8.90;4.45;;;;;;;;;;5052486;28;20096;-61
2023/07/14 08:34:51;;;;;;;4.10;3.53;;;;;;;;;;5058307;28;20057;-61
2023/07/14 08:37:16;;;;;;;5.60;3.00;;;;;;;;;;5069350;28;20147;-61
2023/07/14 08:39:42;;;;;;;4.60;3.30;;;;;;;;;;5073514;28;20499;-61
2023/07/14 08:42:15;;;;;;;10.80;4.30;;;;;;;;;;5054873;28;20093;-61
2023/07/14 08:44:43;;;;;;;7.82;3.63;;;;;;;;;;5053699;28;20032;-61
2023/07/14 08:47:08;;;;;;;;;;;;;;;;;;5067701;28;20044;-61
2023/07/14 08:49:53;;;;;;;6.75;3.13;;;;;;;;;;5073616;28;19927;-61
2023/07/14 08:52:35;;;;;;;5.90;3.42;;;;;;;;;;5053163;28;20519;-61
2023/07/14 08:55:06;;;;;;;5.20;3.25;;;;;;;;;;5053262;28;20063;-61
2023/07/14 08:57:36;;;;;;;7.35;4.82;;;;;;;;;;5051663;28;20488;-61
2023/07/14 09:00:03;;;;;;;7.05;3.80;;;;;;;;;;5052640;28;20017;-63
2023/07/14 09:02:37;;;;;;;6.10;4.50;;;;;;;;;;5051973;28;20395;-61
2023/07/14 09:05:04;;;;;;;4.68;3.45;;;;;;;;;;5053447;28;20375;-61
2023/07/14 09:07:30;;;;;;;7.07;3.78;;;;;;;;;;5051734;28;20071;-61
2023/07/14 09:09:55;;;;;;;8.02;4.40;;;;;;;;;;5053135;28;20502;-61
2023/07/14 09:12:28;;;;;;;9.50;3.85;;;;;;;;;;5051920;28;20048;-61
2023/07/14 09:14:57;;;;;;;5.10;4.15;;;;;;;;;;5052701;28;20028;-61
2023/07/14 09:17:22;;;;;;;;;;;;;;;;;;5052306;28;20488;-61
2023/07/14 09:20:06;;;;;;;6.28;4.07;;;;;;;;;;5052900;28;19904;-61
2023/07/14 09:22:37;;;;;;;4.88;3.70;;;;;;;;;;5051220;28;20040;-61
2023/07/14 09:25:05;;;;;;;9.40;3.03;;;;;;;;;;5052801;28;20392;-61
2023/07/14 09:27:31;;;;;;;8.07;3.33;;;;;;;;;;5055530;28;20041;-61
2023/07/14 09:29:57;;;;;;;5.50;2.95;;;;;;;;;;5071024;28;20032;-61
2023/07/14 09:32:26;;;;;;;4.32;3.92;;;;;;;;;;5071182;28;20122;-61
2023/07/14 09:34:56;;;;;;;6.53;2.92;;;;;;;;;;5071377;28;20031;-61
2023/07/14 09:37:26;;;;;;;8.20;3.78;;;;;;;;;;5071242;28;20444;-61
2023/07/14 09:40:02;;;;;;;5.90;2.80;;;;;;;;;;5072852;28;20016;-61
2023/07/14 09:42:29;;;;;;;6.93;3.38;;;;;;;;;;5071185;28;20035;-61
2023/07/14 09:44:58;;;;;;;3.53;2.80;;;;;;;;;;5072333;28;20479;-61
2023/07/14 09:47:24;;;;;;;5.13;2.65;;;;;;;;;;5052652;28;20448;-61
2023/07/14 09:49:57;;;;;;;4.25;2.78;;;;;;;;;;5052437;28;20385;-61
2023/07/14 09:52:23;;;;;;;9.38;3.67;;;;;;;;;;5050886;28;20449;-61
2023/07/14 09:54:50;;;;;;;6.75;3.55;;;;;;;;;;5051253;28;20383;-61
2023/07/14 09:57:17;;;;;;;4.50;3.75;;;;;;;;;;5050728;28;20799;-61
2023/07/14 09:59:49;;;;;;;6.15;4.07;;;;;;;;;;5051879;28;20055;-61
2023/07/14 10:02:15;;;;;;;5.22;3.60;;;;;;;;;;5050626;28;20144;-61
2023/07/14 10:04:46;;;;;;;5.13;3.55;;;;;;;;;;5052588;28;20104;-61
2023/07/14 10:07:26;;;;;;;7.35;4.03;;;;;;;;;;5050149;28;20079;-61
2023/07/14 10:09:59;;;;;;;7.18;4.53;;;;;;;;;;5052449;28;20061;-61
2023/07/14 10:12:24;;;;;;;6.03;3.67;;;;;;;;;;5059058;28;20127;-61
2023/07/14 10:14:49;;;;;;;7.03;3.80;;;;;;;;;;5071523;28;20107;-61
2023/07/14 10:17:25;;;;;;;4.70;3.67;;;;;;;;;;5069715;28;20384;-61
2023/07/14 10:19:51;;;;;;;5.07;3.75;;;;;;;;;;5071843;28;20025;-61
2023/07/14 10:22:20;;;;;;;5.75;4.05;;;;;;;;;;5068854;28;20048;-61
2023/07/14 10:24:45;;;;;;;8.00;4.30;;;;;;;;;;5065809;28;20111;-61
2023/07/14 10:27:18;;;;;;;6.70;2.95;;;;;;;;;;5068945;28;20184;-61
2023/07/14 10:29:50;;;;;;;15.75;3.95;;;;;;;;;;5069475;28;20039;-61
2023/07/14 10:32:22;;;;;;;3.15;2.45;;;;;;;;;;5056775;28;20063;-61
2023/07/14 10:34:47;;;;;;;4.63;3.28;;;;;;;;;;5031498;28;20691;-60
2023/07/14 10:37:21;;;;;;;6.30;3.23;;;;;;;;;;5051969;28;20175;-61
2023/07/14 10:39:50;;;;;;;3.70;2.38;;;;;;;;;;5071157;28;20038;-61
2023/07/14 10:42:15;;;;;;;;;;;;;;;;;;5070116;28;20032;-61
2023/07/14 10:44:41;;;;;;;4.15;2.20;;;;;;;;;;5071253;28;19909;-61
2023/07/14 10:47:12;;;;;;;8.50;3.75;;;;;;;;;;5069037;28;20037;-61
2023/07/14 10:49:43;;;;;;;5.97;3.50;;;;;;;;;;5071502;28;20103;-60
2023/07/14 10:52:14;;;;;;;8.32;3.90;;;;;;;;;;5069154;28;20048;-61
2023/07/14 10:54:46;;;;;;;10.98;5.22;;;;;;;;;;5071327;28;20017;-61
2023/07/14 10:57:16;;;;;;;4.47;3.30;;;;;;;;;;5069229;28;20111;-61
2023/07/14 10:59:51;;;;;;;4.25;3.65;;;;;;;;;;5071006;28;20028;-61
2023/07/14 11:02:25;;;;;;;5.82;3.38;;;;;;;;;;5068804;28;20058;-60
2023/07/14 11:04:56;;;;;;;7.65;3.13;;;;;;;;;;5070711;28;20086;-61
2023/07/14 11:07:29;;;;;;;4.13;3.03;;;;;;;;;;5068764;28;20040;-61
2023/07/14 11:09:55;;;;;;;5.47;2.58;;;;;;;;;;5070940;28;20039;-61
2023/07/14 11:12:30;;;;;;;6.90;3.15;;;;;;;;;;5069364;28;20028;-62
2023/07/14 11:15:15;;;;;;;5.28;2.95;;;;;;;;;;5070396;28;20070;-61
2023/07/14 11:17:49;;;;;;;7.22;3.10;;;;;;;;;;5069521;28;20574;-62
2023/07/14 11:20:27;;;;;;;9.82;3.47;;;;;;;;;;5070577;28;20025;-61
2023/07/14 11:22:57;;;;;;;7.10;2.97;;;;;;;;;;5068797;28;20036;-61
2023/07/14 11:25:30;;;;;;;4.82;2.63;;;;;;;;;;5070711;28;20028;-61
2023/07/14 11:27:58;;;;;;;7.38;3.17;;;;;;;;;;5067064;28;20538;-62
2023/07/14 11:30:23;;;;;;;;;;;;;;;;;;5060650;28;20029;-61
2023/07/14 11:32:59;;;;;;;3.92;2.30;;;;;;;;;;5066634;28;19912;-62
2023/07/14 11:35:40;;;;;;;6.40;3.90;;;;;;;;;;5069992;28;20037;-61
2023/07/14 11:38:05;;;;;;;6.10;2.60;;;;;;;;;;5068617;28;20499;-61
2023/07/14 11:40:35;;;;;;;6.33;2.57;;;;;;;;;;5070762;28;20028;-61
2023/07/14 11:43:01;;;;;;;2.83;2.40;;;;;;;;;;5063482;28;20183;-61
2023/07/14 11:45:27;;;;;;;9.05;3.28;;;;;;;;;;5070212;28;20095;-61
2023/07/14 11:47:54;;;;;;;3.55;2.45;;;;;;;;;;5075924;28;20037;-61
2023/07/14 11:50:21;;;;;;;8.10;4.43;;;;;;;;;;5076801;28;20025;-61
2023/07/14 11:52:57;;;;;;;10.27;2.60;;;;;;;;;;5075763;28;20048;-61
2023/07/14 11:55:23;;;;;;;10.07;3.65;;;;;;;;;;5064936;28;20060;-61
2023/07/14 11:57:50;;;;;;;4.05;3.30;;;;;;;;;;5055530;28;20128;-61
2023/07/14 12:00:23;;;;;;;4.90;2.22;;;;;;;;;;5056803;28;20028;-61
2023/07/14 12:03:09;;;;;;;3.95;2.90;;;;;;;;;;5072091;28;20062;-61
2023/07/14 12:05:39;;;;;;;4.55;2.55;;;;;;;;;;5070212;28;20048;-61
2023/07/14 12:08:04;;;;;;;10.70;3.00;;;;;;;;;;5064642;28;20631;-61
2023/07/14 12:10:38;;;;;;;4.10;2.30;;;;;;;;;;5057173;28;20129;-61
2023/07/14 12:13:18;;;;;;;14.57;4.30;;;;;;;;;;5054895;28;20029;-61
2023/07/14 12:15:56;;;;;;;3.60;2.45;;;;;;;;;;5073674;28;20028;-61
2023/07/14 12:18:37;;;;;;;6.22;3.10;;;;;;;;;;5066604;28;20041;-62
2023/07/14 12:21:15;;;;;;;5.40;2.40;;;;;;;;;;5053072;28;20047;-63
2023/07/14 12:23:40;;;;;;;;;;;;;;;;;;5054261;28;20036;-63
2023/07/14 12:26:17;;;;;;;3.80;2.10;;;;;;;;;;5054587;28;19939;-62
2023/07/14 12:28:42;;;;;;;6.97;2.67;;;;;;;;;;5063221;28;20150;-63
2023/07/14 12:31:16;;;;;;;4.28;2.63;;;;;;;;;;5055362;28;20052;-62
2023/07/14 12:33:41;;;;;;;5.45;2.85;;;;;;;;;;5076640;28;20099;-63
2023/07/14 12:36:13;;;;;;;4.25;1.95;;;;;;;;;;5073937;28;20169;-68
2023/07/14 12:38:43;;;;;;;9.73;2.72;;;;;;;;;;5067074;28;20530;-63
2023/07/14 12:41:09;;;;;;;4.03;2.13;;;;;;;;;;5065407;28;20115;-62
2023/07/14 12:43:36;;;;;;;3.53;2.65;;;;;;;;;;5075497;28;20016;-63
2023/07/14 12:46:11;;;;;;;4.07;2.50;;;;;;;;;;5076854;28;20421;-63
2023/07/14 12:48:36;;;;;;;5.63;3.13;;;;;;;;;;5074780;28;20048;-63
2023/07/14 12:51:11;;;;;;;4.97;3.17;;;;;;;;;;5075222;28;20379;-63
2023/07/14 12:53:38;;;;;;;6.78;2.63;;;;;;;;;;5073242;28;20524;-63
2023/07/14 12:56:10;;;;;;;4.55;3.75;;;;;;;;;;5070660;28;20036;-63
2023/07/14 12:58:35;;;;;;;7.00;2.28;;;;;;;;;;5070479;28;20040;-63
2023/07/14 13:01:03;;;;;;;2.50;2.30;;;;;;;;;;5071593;28;20035;-63
2023/07/14 13:03:33;;;;;;;8.88;3.05;;;;;;;;;;5070303;28;20035;-63
2023/07/14 13:05:59;;;;;;;11.73;3.63;;;;;;;;;;5071695;28;20099;-63
2023/07/14 13:08:26;;;;;;;5.07;2.47;;;;;;;;;;5070709;28;20138;-63
2023/07/14 13:10:53;;;;;;;4.85;2.20;;;;;;;;;;5073256;28;20017;-63
2023/07/14 13:13:23;;;;;;;12.20;4.35;;;;;;;;;;5063550;28;20140;-63
2023/07/14 13:15:50;;;;;;;4.70;2.25;;;;;;;;;;5063119;28;20021;-63
2023/07/14 13:18:26;;;;;;;7.95;3.55;;;;;;;;;;5051244;28;20403;-63
2023/07/14 13:20:54;;;;;;;6.18;2.88;;;;;;;;;;5058195;28;20537;-62
2023/07/14 13:23:22;;;;;;;2.38;1.85;;;;;;;;;;5055637;28;20124;-63
2023/07/14 13:25:47;;;;;;;;;;;;;;;;;;5052285;28;20075;-63
2023/07/14 13:28:35;;;;;;;12.70;4.30;;;;;;;;;;5051685;28;19913;-62
2023/07/14 13:31:04;;;;;;;3.80;2.50;;;;;;;;;;5064646;28;20079;-63
2023/07/14 13:33:31;;;;;;;3.33;2.42;;;;;;;;;;5069721;28;20098;-63
2023/07/14 13:35:59;;;;;;;7.97;2.33;;;;;;;;;;5070460;28;20102;-63
2023/07/14 13:38:25;;;;;;;4.63;2.97;;;;;;;;;;5071091;28;20044;-63
2023/07/14 13:40:52;;;;;;;8.32;2.92;;;;;;;;;;5071956;28;20036;-63
2023/07/14 13:43:20;;;;;;;3.15;2.72;;;;;;;;;;5070356;28;20029;-63
2023/07/14 13:45:55;;;;;;;6.78;2.78;;;;;;;;;;5072218;28;20379;-63
2023/07/14 13:48:26;;;;;;;6.97;2.53;;;;;;;;;;5070794;28;20059;-63
2023/07/14 13:50:52;;;;;;;6.13;2.47;;;;;;;;;;5072139;28;20059;-63
2023/07/14 13:53:17;;;;;;;3.95;2.10;;;;;;;;;;5055504;28;20060;-63
2023/07/14 13:55:42;;;;;;;3.80;2.20;;;;;;;;;;5052084;28;20138;-63
2023/07/14 13:58:11;;;;;;;5.10;2.50;;;;;;;;;;5063969;28;20036;-63
2023/07/14 14:00:36;;;;;;;3.28;2.35;;;;;;;;;;5068624;28;20028;-63
2023/07/14 14:03:04;;;;;;;4.87;2.60;;;;;;;;;;5065576;28;20538;-63
2023/07/14 14:05:39;;;;;;;3.35;2.20;;;;;;;;;;5053935;28;20139;-63
2023/07/14 14:08:05;;;;;;;3.00;2.10;;;;;;;;;;5050230;28;20037;-63
2023/07/14 14:10:31;;;;;;;5.97;2.58;;;;;;;;;;5051864;28;20381;-63
2023/07/14 14:12:57;;;;;;;4.88;2.47;;;;;;;;;;5065777;28;20040;-63
2023/07/14 14:15:41;;;;;;;2.63;2.00;;;;;;;;;;5071930;28;20024;-63
2023/07/14 14:18:18;;;;;;;2.17;1.98;;;;;;;;;;5067626;28;20044;-64
2023/07/14 14:20:43;;;;;;;4.85;2.45;;;;;;;;;;5069549;28;20012;-64
2023/07/14 14:23:12;;;;;;;4.20;2.60;;;;;;;;;;5069160;28;20040;-63
2023/07/14 14:25:37;;;;;;;3.95;2.80;;;;;;;;;;5070841;28;20016;-63
2023/07/14 14:28:02;;;;;;;3.53;2.30;;;;;;;;;;5069581;28;20040;-63
2023/07/14 14:30:39;;;;;;;4.93;2.20;;;;;;;;;;5070508;28;20073;-63
2023/07/14 14:33:05;;;;;;;7.32;2.40;;;;;;;;;;5067864;28;20473;-63